sensor_id;sensor_type;location;lat;lon;timestamp;P1;durP1;ratioP1;P2;durP2;ratioP2
52854;SDS011;38719;51.418;7.286;2022-07-23T00:00:30;13.77;;;9.25;;
52854;SDS011;38719;51.418;7.286;2022-07-23T00:03:03;14.65;;;8.50;;
52854;SDS011;38719;51.418;7.286;2022-07-23T00:05:31;20.25;;;9.70;;
52854;SDS011;38719;51.418;7.286;2022-07-23T00:08:00;21.35;;;9.57;;
52854;SDS011;38719;51.418;7.286;2022-07-23T00:10:28;15.55;;;10.18;;
52854;SDS011;38719;51.418;7.286;2022-07-23T00:12:56;18.48;;;10.65;;
52854;SDS011;38719;51.418;7.286;2022-07-23T00:15:25;18.67;;;11.00;;
52854;SDS011;38719;51.418;7.286;2022-07-23T00:17:52;17.52;;;10.82;;
52854;SDS011;38719;51.418;7.286;2022-07-23T00:20:20;17.80;;;10.15;;
52854;SDS011;38719;51.418;7.286;2022-07-23T00:22:48;17.00;;;10.02;;
52854;SDS011;38719;51.418;7.286;2022-07-23T00:25:17;19.90;;;10.07;;
52854;SDS011;38719;51.418;7.286;2022-07-23T00:27:55;16.33;;;10.10;;
52854;SDS011;38719;51.418;7.286;2022-07-23T00:30:24;17.25;;;9.82;;
52854;SDS011;38719;51.418;7.286;2022-07-23T00:32:53;16.35;;;10.57;;
52854;SDS011;38719;51.418;7.286;2022-07-23T00:35:23;20.67;;;11.20;;
52854;SDS011;38719;51.418;7.286;2022-07-23T00:37:52;15.55;;;10.52;;
52854;SDS011;38719;51.418;7.286;2022-07-23T00:40:20;16.65;;;10.50;;
52854;SDS011;38719;51.418;7.286;2022-07-23T00:42:48;20.05;;;11.35;;
52854;SDS011;38719;51.418;7.286;2022-07-23T00:45:16;19.15;;;11.00;;
52854;SDS011;38719;51.418;7.286;2022-07-23T00:47:45;17.45;;;11.25;;
52854;SDS011;38719;51.418;7.286;2022-07-23T00:50:13;20.38;;;11.88;;
52854;SDS011;38719;51.418;7.286;2022-07-23T00:52:41;16.50;;;10.70;;
52854;SDS011;38719;51.418;7.286;2022-07-23T00:55:09;17.92;;;10.80;;
52854;SDS011;38719;51.418;7.286;2022-07-23T00:57:38;21.15;;;11.07;;
52854;SDS011;38719;51.418;7.286;2022-07-23T01:00:08;19.90;;;11.38;;
52854;SDS011;38719;51.418;7.286;2022-07-23T01:02:38;17.08;;;10.82;;
52854;SDS011;38719;51.418;7.286;2022-07-23T01:05:07;18.60;;;11.68;;
52854;SDS011;38719;51.418;7.286;2022-07-23T01:07:36;18.20;;;11.20;;
52854;SDS011;38719;51.418;7.286;2022-07-23T01:10:04;21.75;;;12.32;;
52854;SDS011;38719;51.418;7.286;2022-07-23T01:12:53;22.48;;;13.02;;
52854;SDS011;38719;51.418;7.286;2022-07-23T01:15:21;24.67;;;12.70;;
52854;SDS011;38719;51.418;7.286;2022-07-23T01:17:49;21.65;;;13.15;;
52854;SDS011;38719;51.418;7.286;2022-07-23T01:20:18;21.48;;;13.50;;
52854;SDS011;38719;51.418;7.286;2022-07-23T01:22:47;24.50;;;13.77;;
52854;SDS011;38719;51.418;7.286;2022-07-23T01:25:14;24.60;;;14.45;;
52854;SDS011;38719;51.418;7.286;2022-07-23T01:27:42;21.73;;;13.45;;
52854;SDS011;38719;51.418;7.286;2022-07-23T01:30:10;24.63;;;13.73;;
52854;SDS011;38719;51.418;7.286;2022-07-23T01:32:38;21.80;;;13.48;;
52854;SDS011;38719;51.418;7.286;2022-07-23T01:35:07;23.15;;;13.40;;
52854;SDS011;38719;51.418;7.286;2022-07-23T01:37:35;24.55;;;14.30;;
52854;SDS011;38719;51.418;7.286;2022-07-23T01:40:05;22.55;;;14.27;;
52854;SDS011;38719;51.418;7.286;2022-07-23T01:42:34;25.40;;;14.10;;
52854;SDS011;38719;51.418;7.286;2022-07-23T01:45:03;24.55;;;13.48;;
52854;SDS011;38719;51.418;7.286;2022-07-23T01:47:31;26.30;;;14.70;;
52854;SDS011;38719;51.418;7.286;2022-07-23T01:49:59;26.10;;;14.13;;
52854;SDS011;38719;51.418;7.286;2022-07-23T01:52:26;24.38;;;13.70;;
52854;SDS011;38719;51.418;7.286;2022-07-23T01:54:54;22.88;;;14.20;;
52854;SDS011;38719;51.418;7.286;2022-07-23T01:57:23;27.88;;;14.98;;
52854;SDS011;38719;51.418;7.286;2022-07-23T01:59:50;30.67;;;14.43;;
52854;SDS011;38719;51.418;7.286;2022-07-23T02:02:18;24.38;;;14.60;;
52854;SDS011;38719;51.418;7.286;2022-07-23T02:04:46;24.85;;;14.50;;
52854;SDS011;38719;51.418;7.286;2022-07-23T02:07:13;30.33;;;15.57;;
52854;SDS011;38719;51.418;7.286;2022-07-23T02:09:41;28.38;;;15.52;;
52854;SDS011;38719;51.418;7.286;2022-07-23T02:12:08;27.20;;;14.70;;
52854;SDS011;38719;51.418;7.286;2022-07-23T02:14:37;30.10;;;15.85;;
52854;SDS011;38719;51.418;7.286;2022-07-23T02:17:05;26.05;;;15.65;;
52854;SDS011;38719;51.418;7.286;2022-07-23T02:19:32;26.35;;;15.32;;
52854;SDS011;38719;51.418;7.286;2022-07-23T02:22:00;29.90;;;16.05;;
52854;SDS011;38719;51.418;7.286;2022-07-23T02:24:28;24.88;;;15.68;;
52854;SDS011;38719;51.418;7.286;2022-07-23T02:26:55;29.60;;;15.10;;
52854;SDS011;38719;51.418;7.286;2022-07-23T02:29:23;32.97;;;16.45;;
52854;SDS011;38719;51.418;7.286;2022-07-23T02:31:51;21.85;;;14.55;;
52854;SDS011;38719;51.418;7.286;2022-07-23T02:34:19;28.83;;;15.52;;
52854;SDS011;38719;51.418;7.286;2022-07-23T02:36:47;24.10;;;14.75;;
52854;SDS011;38719;51.418;7.286;2022-07-23T02:39:14;26.42;;;14.52;;
52854;SDS011;38719;51.418;7.286;2022-07-23T02:41:42;25.65;;;14.60;;
52854;SDS011;38719;51.418;7.286;2022-07-23T02:44:09;24.40;;;14.68;;
52854;SDS011;38719;51.418;7.286;2022-07-23T02:46:37;29.02;;;15.73;;
52854;SDS011;38719;51.418;7.286;2022-07-23T02:49:06;29.33;;;15.07;;
52854;SDS011;38719;51.418;7.286;2022-07-23T02:51:34;29.23;;;14.77;;
52854;SDS011;38719;51.418;7.286;2022-07-23T02:54:01;26.02;;;14.40;;
52854;SDS011;38719;51.418;7.286;2022-07-23T02:56:29;26.95;;;15.07;;
52854;SDS011;38719;51.418;7.286;2022-07-23T02:58:56;29.63;;;15.55;;
52854;SDS011;38719;51.418;7.286;2022-07-23T03:01:24;26.17;;;16.83;;
52854;SDS011;38719;51.418;7.286;2022-07-23T03:03:52;25.17;;;14.57;;
52854;SDS011;38719;51.418;7.286;2022-07-23T03:06:21;26.75;;;14.80;;
52854;SDS011;38719;51.418;7.286;2022-07-23T03:08:49;26.33;;;16.02;;
52854;SDS011;38719;51.418;7.286;2022-07-23T03:11:17;24.35;;;14.88;;
52854;SDS011;38719;51.418;7.286;2022-07-23T03:13:45;27.23;;;15.35;;
52854;SDS011;38719;51.418;7.286;2022-07-23T03:16:13;25.02;;;15.05;;
52854;SDS011;38719;51.418;7.286;2022-07-23T03:18:41;25.10;;;14.40;;
52854;SDS011;38719;51.418;7.286;2022-07-23T03:21:08;24.30;;;14.73;;
52854;SDS011;38719;51.418;7.286;2022-07-23T03:23:37;26.48;;;15.65;;
52854;SDS011;38719;51.418;7.286;2022-07-23T03:26:05;28.08;;;14.75;;
52854;SDS011;38719;51.418;7.286;2022-07-23T03:28:32;26.35;;;14.70;;
52854;SDS011;38719;51.418;7.286;2022-07-23T03:31:00;28.55;;;14.60;;
52854;SDS011;38719;51.418;7.286;2022-07-23T03:33:27;25.17;;;14.85;;
52854;SDS011;38719;51.418;7.286;2022-07-23T03:35:55;26.88;;;15.93;;
52854;SDS011;38719;51.418;7.286;2022-07-23T03:38:22;24.85;;;14.50;;
52854;SDS011;38719;51.418;7.286;2022-07-23T03:40:51;27.17;;;14.85;;
52854;SDS011;38719;51.418;7.286;2022-07-23T03:43:19;26.17;;;15.25;;
52854;SDS011;38719;51.418;7.286;2022-07-23T03:45:46;24.75;;;14.50;;
52854;SDS011;38719;51.418;7.286;2022-07-23T03:48:14;24.38;;;14.70;;
52854;SDS011;38719;51.418;7.286;2022-07-23T03:50:41;21.95;;;13.93;;
52854;SDS011;38719;51.418;7.286;2022-07-23T03:53:09;22.98;;;14.60;;
52854;SDS011;38719;51.418;7.286;2022-07-23T03:55:36;23.90;;;14.63;;
52854;SDS011;38719;51.418;7.286;2022-07-23T03:58:05;26.20;;;15.27;;
52854;SDS011;38719;51.418;7.286;2022-07-23T04:00:33;25.17;;;15.52;;
52854;SDS011;38719;51.418;7.286;2022-07-23T04:03:00;28.20;;;15.93;;
52854;SDS011;38719;51.418;7.286;2022-07-23T04:05:28;23.73;;;15.70;;
52854;SDS011;38719;51.418;7.286;2022-07-23T04:07:56;25.88;;;15.00;;
52854;SDS011;38719;51.418;7.286;2022-07-23T04:10:23;24.38;;;14.77;;
52854;SDS011;38719;51.418;7.286;2022-07-23T04:12:51;29.63;;;15.40;;
52854;SDS011;38719;51.418;7.286;2022-07-23T04:15:20;26.73;;;15.75;;
52854;SDS011;38719;51.418;7.286;2022-07-23T04:17:48;24.60;;;15.07;;
52854;SDS011;38719;51.418;7.286;2022-07-23T04:20:16;26.05;;;15.02;;
52854;SDS011;38719;51.418;7.286;2022-07-23T04:22:43;30.50;;;16.42;;
52854;SDS011;38719;51.418;7.286;2022-07-23T04:25:11;25.50;;;16.20;;
52854;SDS011;38719;51.418;7.286;2022-07-23T04:27:39;27.25;;;15.85;;
52854;SDS011;38719;51.418;7.286;2022-07-23T04:30:08;29.63;;;16.02;;
52854;SDS011;38719;51.418;7.286;2022-07-23T04:32:37;32.33;;;17.50;;
52854;SDS011;38719;51.418;7.286;2022-07-23T04:35:05;26.42;;;16.00;;
52854;SDS011;38719;51.418;7.286;2022-07-23T04:37:33;29.95;;;17.75;;
52854;SDS011;38719;51.418;7.286;2022-07-23T04:40:00;31.90;;;17.67;;
52854;SDS011;38719;51.418;7.286;2022-07-23T04:42:28;37.75;;;18.10;;
52854;SDS011;38719;51.418;7.286;2022-07-23T04:44:55;68.22;;;16.95;;
52854;SDS011;38719;51.418;7.286;2022-07-23T04:47:23;43.40;;;16.00;;
52854;SDS011;38719;51.418;7.286;2022-07-23T04:49:55;26.40;;;16.52;;
52854;SDS011;38719;51.418;7.286;2022-07-23T04:52:22;50.22;;;17.30;;
52854;SDS011;38719;51.418;7.286;2022-07-23T04:54:50;33.45;;;15.75;;
52854;SDS011;38719;51.418;7.286;2022-07-23T04:57:18;48.38;;;15.27;;
52854;SDS011;38719;51.418;7.286;2022-07-23T04:59:45;48.40;;;15.23;;
52854;SDS011;38719;51.418;7.286;2022-07-23T05:02:13;24.08;;;14.52;;
52854;SDS011;38719;51.418;7.286;2022-07-23T05:04:40;31.02;;;14.57;;
52854;SDS011;38719;51.418;7.286;2022-07-23T05:07:09;28.63;;;14.77;;
52854;SDS011;38719;51.418;7.286;2022-07-23T05:09:37;34.50;;;15.10;;
52854;SDS011;38719;51.418;7.286;2022-07-23T05:12:04;26.35;;;14.02;;
52854;SDS011;38719;51.418;7.286;2022-07-23T05:14:32;25.27;;;14.65;;
52854;SDS011;38719;51.418;7.286;2022-07-23T05:17:00;26.60;;;14.27;;
52854;SDS011;38719;51.418;7.286;2022-07-23T05:19:27;24.13;;;14.23;;
52854;SDS011;38719;51.418;7.286;2022-07-23T05:21:55;27.48;;;14.45;;
52854;SDS011;38719;51.418;7.286;2022-07-23T05:24:24;23.58;;;15.15;;
52854;SDS011;38719;51.418;7.286;2022-07-23T05:26:51;23.05;;;15.07;;
52854;SDS011;38719;51.418;7.286;2022-07-23T05:29:19;24.45;;;16.80;;
52854;SDS011;38719;51.418;7.286;2022-07-23T05:31:47;61.17;;;18.58;;
52854;SDS011;38719;51.418;7.286;2022-07-23T05:34:14;28.20;;;17.10;;
52854;SDS011;38719;51.418;7.286;2022-07-23T05:36:43;28.10;;;17.60;;
52854;SDS011;38719;51.418;7.286;2022-07-23T05:39:11;27.23;;;17.40;;
52854;SDS011;38719;51.418;7.286;2022-07-23T05:41:39;31.55;;;17.60;;
52854;SDS011;38719;51.418;7.286;2022-07-23T05:44:08;31.50;;;18.25;;
52854;SDS011;38719;51.418;7.286;2022-07-23T05:46:36;29.70;;;17.35;;
52854;SDS011;38719;51.418;7.286;2022-07-23T05:49:03;29.88;;;18.98;;
52854;SDS011;38719;51.418;7.286;2022-07-23T05:51:32;34.60;;;18.20;;
52854;SDS011;38719;51.418;7.286;2022-07-23T05:53:59;31.58;;;18.35;;
52854;SDS011;38719;51.418;7.286;2022-07-23T05:56:27;31.13;;;18.30;;
52854;SDS011;38719;51.418;7.286;2022-07-23T05:58:56;32.83;;;18.90;;
52854;SDS011;38719;51.418;7.286;2022-07-23T06:01:24;40.28;;;19.73;;
52854;SDS011;38719;51.418;7.286;2022-07-23T06:03:52;29.77;;;18.48;;
52854;SDS011;38719;51.418;7.286;2022-07-23T06:06:19;38.75;;;20.40;;
52854;SDS011;38719;51.418;7.286;2022-07-23T06:08:47;34.75;;;19.80;;
52854;SDS011;38719;51.418;7.286;2022-07-23T06:11:14;37.20;;;19.08;;
52854;SDS011;38719;51.418;7.286;2022-07-23T06:13:42;31.35;;;18.50;;
52854;SDS011;38719;51.418;7.286;2022-07-23T06:16:11;29.45;;;18.38;;
52854;SDS011;38719;51.418;7.286;2022-07-23T06:18:39;31.83;;;19.58;;
52854;SDS011;38719;51.418;7.286;2022-07-23T06:21:06;32.95;;;19.65;;
52854;SDS011;38719;51.418;7.286;2022-07-23T06:23:54;29.10;;;19.40;;
52854;SDS011;38719;51.418;7.286;2022-07-23T06:26:21;30.88;;;18.77;;
52854;SDS011;38719;51.418;7.286;2022-07-23T06:28:49;30.00;;;18.48;;
52854;SDS011;38719;51.418;7.286;2022-07-23T06:31:18;29.23;;;19.55;;
52854;SDS011;38719;51.418;7.286;2022-07-23T06:33:45;33.33;;;19.98;;
52854;SDS011;38719;51.418;7.286;2022-07-23T06:36:13;30.08;;;18.45;;
52854;SDS011;38719;51.418;7.286;2022-07-23T06:38:40;31.95;;;19.60;;
52854;SDS011;38719;51.418;7.286;2022-07-23T06:41:10;35.25;;;21.15;;
52854;SDS011;38719;51.418;7.286;2022-07-23T06:43:37;35.95;;;20.60;;
52854;SDS011;38719;51.418;7.286;2022-07-23T06:46:05;33.10;;;20.27;;
52854;SDS011;38719;51.418;7.286;2022-07-23T06:48:34;34.63;;;19.35;;
52854;SDS011;38719;51.418;7.286;2022-07-23T06:51:02;34.05;;;20.00;;
52854;SDS011;38719;51.418;7.286;2022-07-23T06:53:30;31.50;;;19.63;;
52854;SDS011;38719;51.418;7.286;2022-07-23T06:55:58;36.30;;;21.10;;
52854;SDS011;38719;51.418;7.286;2022-07-23T06:58:26;33.85;;;19.98;;
52854;SDS011;38719;51.418;7.286;2022-07-23T07:00:53;30.75;;;18.48;;
52854;SDS011;38719;51.418;7.286;2022-07-23T07:03:22;31.70;;;19.27;;
52854;SDS011;38719;51.418;7.286;2022-07-23T07:05:51;32.22;;;19.42;;
52854;SDS011;38719;51.418;7.286;2022-07-23T07:08:19;32.38;;;19.40;;
52854;SDS011;38719;51.418;7.286;2022-07-23T07:10:47;38.85;;;20.80;;
52854;SDS011;38719;51.418;7.286;2022-07-23T07:13:14;30.20;;;19.35;;
52854;SDS011;38719;51.418;7.286;2022-07-23T07:15:42;34.53;;;19.83;;
52854;SDS011;38719;51.418;7.286;2022-07-23T07:18:09;36.42;;;21.60;;
52854;SDS011;38719;51.418;7.286;2022-07-23T07:20:37;31.30;;;19.67;;
52854;SDS011;38719;51.418;7.286;2022-07-23T07:23:06;35.40;;;20.88;;
52854;SDS011;38719;51.418;7.286;2022-07-23T07:25:33;34.78;;;21.17;;
52854;SDS011;38719;51.418;7.286;2022-07-23T07:28:01;35.10;;;19.38;;
52854;SDS011;38719;51.418;7.286;2022-07-23T07:30:28;32.30;;;20.52;;
52854;SDS011;38719;51.418;7.286;2022-07-23T07:32:59;34.97;;;20.67;;
52854;SDS011;38719;51.418;7.286;2022-07-23T07:35:27;34.05;;;20.25;;
52854;SDS011;38719;51.418;7.286;2022-07-23T07:37:55;35.90;;;20.80;;
52854;SDS011;38719;51.418;7.286;2022-07-23T07:40:24;34.60;;;21.65;;
52854;SDS011;38719;51.418;7.286;2022-07-23T07:42:59;33.35;;;19.60;;
52854;SDS011;38719;51.418;7.286;2022-07-23T07:45:27;33.35;;;19.58;;
52854;SDS011;38719;51.418;7.286;2022-07-23T07:47:55;37.47;;;21.02;;
52854;SDS011;38719;51.418;7.286;2022-07-23T07:50:23;29.98;;;19.85;;
52854;SDS011;38719;51.418;7.286;2022-07-23T07:52:51;33.08;;;19.60;;
52854;SDS011;38719;51.418;7.286;2022-07-23T07:55:19;31.05;;;19.88;;
52854;SDS011;38719;51.418;7.286;2022-07-23T07:57:48;32.33;;;21.73;;
52854;SDS011;38719;51.418;7.286;2022-07-23T08:00:15;32.30;;;21.40;;
52854;SDS011;38719;51.418;7.286;2022-07-23T08:02:45;31.20;;;20.35;;
52854;SDS011;38719;51.418;7.286;2022-07-23T08:05:18;34.08;;;19.85;;
52854;SDS011;38719;51.418;7.286;2022-07-23T08:07:53;29.95;;;18.80;;
52854;SDS011;38719;51.418;7.286;2022-07-23T08:10:21;28.75;;;19.17;;
52854;SDS011;38719;51.418;7.286;2022-07-23T08:12:51;30.77;;;19.15;;
52854;SDS011;38719;51.418;7.286;2022-07-23T08:15:21;30.77;;;19.23;;
52854;SDS011;38719;51.418;7.286;2022-07-23T08:17:49;31.05;;;19.42;;
52854;SDS011;38719;51.418;7.286;2022-07-23T08:20:18;35.95;;;18.27;;
52854;SDS011;38719;51.418;7.286;2022-07-23T08:22:48;29.42;;;19.70;;
52854;SDS011;38719;51.418;7.286;2022-07-23T08:25:19;24.70;;;17.30;;
52854;SDS011;38719;51.418;7.286;2022-07-23T08:27:50;27.15;;;18.73;;
52854;SDS011;38719;51.418;7.286;2022-07-23T08:30:18;29.13;;;19.02;;
52854;SDS011;38719;51.418;7.286;2022-07-23T08:32:50;28.50;;;19.20;;
52854;SDS011;38719;51.418;7.286;2022-07-23T08:35:21;27.90;;;17.25;;
52854;SDS011;38719;51.418;7.286;2022-07-23T08:37:49;27.00;;;16.70;;
52854;SDS011;38719;51.418;7.286;2022-07-23T08:40:17;28.35;;;15.68;;
52854;SDS011;38719;51.418;7.286;2022-07-23T08:42:46;24.40;;;16.48;;
52854;SDS011;38719;51.418;7.286;2022-07-23T08:45:17;23.17;;;16.67;;
52854;SDS011;38719;51.418;7.286;2022-07-23T08:47:48;25.50;;;15.77;;
52854;SDS011;38719;51.418;7.286;2022-07-23T08:50:19;26.50;;;16.35;;
52854;SDS011;38719;51.418;7.286;2022-07-23T08:52:47;23.55;;;15.80;;
52854;SDS011;38719;51.418;7.286;2022-07-23T08:55:16;21.65;;;14.23;;
52854;SDS011;38719;51.418;7.286;2022-07-23T08:57:44;19.80;;;14.85;;
52854;SDS011;38719;51.418;7.286;2022-07-23T09:00:13;19.17;;;13.02;;
52854;SDS011;38719;51.418;7.286;2022-07-23T09:02:44;18.58;;;13.20;;
52854;SDS011;38719;51.418;7.286;2022-07-23T09:05:12;20.00;;;15.13;;
52854;SDS011;38719;51.418;7.286;2022-07-23T09:10:43;17.85;;;13.80;;
52854;SDS011;38719;51.418;7.286;2022-07-23T09:13:29;19.20;;;14.35;;
52854;SDS011;38719;51.418;7.286;2022-07-23T09:16:01;21.02;;;14.00;;
52854;SDS011;38719;51.418;7.286;2022-07-23T09:18:33;16.73;;;13.07;;
52854;SDS011;38719;51.418;7.286;2022-07-23T09:21:07;16.60;;;13.88;;
52854;SDS011;38719;51.418;7.286;2022-07-23T09:23:37;18.75;;;14.35;;
52854;SDS011;38719;51.418;7.286;2022-07-23T09:26:17;17.45;;;13.48;;
52854;SDS011;38719;51.418;7.286;2022-07-23T09:28:50;19.45;;;14.90;;
52854;SDS011;38719;51.418;7.286;2022-07-23T09:31:20;18.95;;;15.80;;
52854;SDS011;38719;51.418;7.286;2022-07-23T09:33:49;16.70;;;14.43;;
52854;SDS011;38719;51.418;7.286;2022-07-23T09:36:26;15.93;;;14.23;;
52854;SDS011;38719;51.418;7.286;2022-07-23T09:38:55;14.90;;;13.30;;
52854;SDS011;38719;51.418;7.286;2022-07-23T09:41:22;16.02;;;13.63;;
52854;SDS011;38719;51.418;7.286;2022-07-23T09:44:05;18.02;;;14.77;;
52854;SDS011;38719;51.418;7.286;2022-07-23T09:46:35;15.52;;;13.77;;
52854;SDS011;38719;51.418;7.286;2022-07-23T09:49:11;15.30;;;12.45;;
52854;SDS011;38719;51.418;7.286;2022-07-23T09:51:43;14.70;;;12.68;;
52854;SDS011;38719;51.418;7.286;2022-07-23T09:54:23;16.70;;;14.75;;
52854;SDS011;38719;51.418;7.286;2022-07-23T09:59:25;20.05;;;15.63;;
52854;SDS011;38719;51.418;7.286;2022-07-23T10:01:55;19.40;;;16.15;;
52854;SDS011;38719;51.418;7.286;2022-07-23T10:04:27;21.25;;;15.00;;
52854;SDS011;38719;51.418;7.286;2022-07-23T10:06:56;19.80;;;15.88;;
52854;SDS011;38719;51.418;7.286;2022-07-23T10:09:26;19.10;;;15.75;;
52854;SDS011;38719;51.418;7.286;2022-07-23T10:11:56;20.73;;;16.35;;
52854;SDS011;38719;51.418;7.286;2022-07-23T10:14:28;17.10;;;15.10;;
52854;SDS011;38719;51.418;7.286;2022-07-23T10:16:58;15.55;;;13.95;;
52854;SDS011;38719;51.418;7.286;2022-07-23T10:19:28;19.63;;;14.52;;
52854;SDS011;38719;51.418;7.286;2022-07-23T10:21:57;17.33;;;14.27;;
52854;SDS011;38719;51.418;7.286;2022-07-23T10:24:36;16.13;;;14.05;;
52854;SDS011;38719;51.418;7.286;2022-07-23T10:27:18;17.10;;;14.98;;
52854;SDS011;38719;51.418;7.286;2022-07-23T10:30:00;15.70;;;14.10;;
52854;SDS011;38719;51.418;7.286;2022-07-23T10:32:36;15.32;;;12.63;;
52854;SDS011;38719;51.418;7.286;2022-07-23T10:38:02;15.48;;;13.10;;
52854;SDS011;38719;51.418;7.286;2022-07-23T10:40:37;17.17;;;12.82;;
52854;SDS011;38719;51.418;7.286;2022-07-23T10:43:21;16.55;;;12.07;;
52854;SDS011;38719;51.418;7.286;2022-07-23T10:45:48;13.85;;;10.50;;
52854;SDS011;38719;51.418;7.286;2022-07-23T10:48:17;12.52;;;10.13;;
52854;SDS011;38719;51.418;7.286;2022-07-23T10:59:43;10.68;;;8.35;;
52854;SDS011;38719;51.418;7.286;2022-07-23T11:02:44;11.70;;;9.30;;
52854;SDS011;38719;51.418;7.286;2022-07-23T11:05:14;13.05;;;9.07;;
52854;SDS011;38719;51.418;7.286;2022-07-23T11:10:43;8.65;;;7.80;;
52854;SDS011;38719;51.418;7.286;2022-07-23T11:13:25;8.38;;;7.50;;
52854;SDS011;38719;51.418;7.286;2022-07-23T11:21:41;7.65;;;6.60;;
52854;SDS011;38719;51.418;7.286;2022-07-23T11:24:18;11.30;;;7.38;;
52854;SDS011;38719;51.418;7.286;2022-07-23T11:26:54;9.02;;;6.22;;
52854;SDS011;38719;51.418;7.286;2022-07-23T11:29:38;7.45;;;6.22;;
52854;SDS011;38719;51.418;7.286;2022-07-23T11:32:23;7.67;;;5.70;;
52854;SDS011;38719;51.418;7.286;2022-07-23T11:34:56;10.52;;;6.40;;
52854;SDS011;38719;51.418;7.286;2022-07-23T11:40:13;8.77;;;6.80;;
52854;SDS011;38719;51.418;7.286;2022-07-23T11:42:50;7.28;;;6.18;;
52854;SDS011;38719;51.418;7.286;2022-07-23T11:45:20;8.20;;;5.45;;
52854;SDS011;38719;51.418;7.286;2022-07-23T11:47:48;8.57;;;5.60;;
52854;SDS011;38719;51.418;7.286;2022-07-23T11:50:15;8.82;;;6.50;;
52854;SDS011;38719;51.418;7.286;2022-07-23T11:52:43;8.43;;;6.07;;
52854;SDS011;38719;51.418;7.286;2022-07-23T11:55:12;11.95;;;5.78;;
52854;SDS011;38719;51.418;7.286;2022-07-23T11:57:42;6.40;;;4.50;;
52854;SDS011;38719;51.418;7.286;2022-07-23T12:00:12;7.13;;;4.88;;
52854;SDS011;38719;51.418;7.286;2022-07-23T12:02:42;5.25;;;4.53;;
52854;SDS011;38719;51.418;7.286;2022-07-23T12:05:12;6.45;;;3.97;;
52854;SDS011;38719;51.418;7.286;2022-07-23T12:07:41;6.63;;;4.15;;
52854;SDS011;38719;51.418;7.286;2022-07-23T12:10:13;6.40;;;4.07;;
52854;SDS011;38719;51.418;7.286;2022-07-23T12:12:42;7.05;;;4.40;;
52854;SDS011;38719;51.418;7.286;2022-07-23T12:15:11;12.85;;;4.38;;
52854;SDS011;38719;51.418;7.286;2022-07-23T12:17:41;7.45;;;3.80;;
52854;SDS011;38719;51.418;7.286;2022-07-23T12:20:19;9.43;;;4.07;;
52854;SDS011;38719;51.418;7.286;2022-07-23T12:22:49;6.43;;;4.50;;
52854;SDS011;38719;51.418;7.286;2022-07-23T12:25:19;6.47;;;4.07;;
52854;SDS011;38719;51.418;7.286;2022-07-23T12:27:57;5.88;;;3.88;;
52854;SDS011;38719;51.418;7.286;2022-07-23T12:30:28;7.20;;;4.32;;
52854;SDS011;38719;51.418;7.286;2022-07-23T12:33:02;6.50;;;3.58;;
52854;SDS011;38719;51.418;7.286;2022-07-23T12:35:32;4.55;;;2.80;;
52854;SDS011;38719;51.418;7.286;2022-07-23T12:38:03;7.20;;;3.63;;
52854;SDS011;38719;51.418;7.286;2022-07-23T12:40:34;4.03;;;3.15;;
52854;SDS011;38719;51.418;7.286;2022-07-23T12:43:05;7.25;;;3.53;;
52854;SDS011;38719;51.418;7.286;2022-07-23T12:45:42;6.25;;;3.92;;
52854;SDS011;38719;51.418;7.286;2022-07-23T12:48:16;5.68;;;3.47;;
52854;SDS011;38719;51.418;7.286;2022-07-23T12:50:51;5.60;;;3.50;;
52854;SDS011;38719;51.418;7.286;2022-07-23T12:53:21;4.70;;;3.60;;
52854;SDS011;38719;51.418;7.286;2022-07-23T12:55:58;4.20;;;3.20;;
52854;SDS011;38719;51.418;7.286;2022-07-23T12:58:41;3.13;;;2.83;;
52854;SDS011;38719;51.418;7.286;2022-07-23T13:01:22;7.00;;;3.25;;
52854;SDS011;38719;51.418;7.286;2022-07-23T13:04:00;4.28;;;3.00;;
52854;SDS011;38719;51.418;7.286;2022-07-23T13:06:39;5.60;;;3.25;;
52854;SDS011;38719;51.418;7.286;2022-07-23T13:09:08;5.40;;;2.90;;
52854;SDS011;38719;51.418;7.286;2022-07-23T13:11:40;3.42;;;2.65;;
52854;SDS011;38719;51.418;7.286;2022-07-23T13:14:08;3.40;;;2.92;;
52854;SDS011;38719;51.418;7.286;2022-07-23T13:16:37;5.85;;;2.90;;
52854;SDS011;38719;51.418;7.286;2022-07-23T13:19:06;4.90;;;3.00;;
52854;SDS011;38719;51.418;7.286;2022-07-23T13:21:37;4.65;;;3.10;;
52854;SDS011;38719;51.418;7.286;2022-07-23T13:24:06;6.68;;;3.40;;
52854;SDS011;38719;51.418;7.286;2022-07-23T13:26:34;7.78;;;3.15;;
52854;SDS011;38719;51.418;7.286;2022-07-23T13:29:04;5.90;;;3.20;;
52854;SDS011;38719;51.418;7.286;2022-07-23T13:31:34;4.85;;;3.70;;
52854;SDS011;38719;51.418;7.286;2022-07-23T13:34:04;4.40;;;3.15;;
52854;SDS011;38719;51.418;7.286;2022-07-23T13:36:33;4.28;;;3.42;;
52854;SDS011;38719;51.418;7.286;2022-07-23T13:39:01;5.15;;;3.10;;
52854;SDS011;38719;51.418;7.286;2022-07-23T13:41:33;4.85;;;2.92;;
52854;SDS011;38719;51.418;7.286;2022-07-23T13:44:01;8.35;;;3.33;;
52854;SDS011;38719;51.418;7.286;2022-07-23T13:46:30;4.80;;;3.38;;
52854;SDS011;38719;51.418;7.286;2022-07-23T13:48:58;7.38;;;3.08;;
52854;SDS011;38719;51.418;7.286;2022-07-23T13:51:27;4.53;;;3.20;;
52854;SDS011;38719;51.418;7.286;2022-07-23T13:53:54;6.22;;;3.55;;
52854;SDS011;38719;51.418;7.286;2022-07-23T13:56:25;8.57;;;3.40;;
52854;SDS011;38719;51.418;7.286;2022-07-23T13:58:52;30.00;;;3.55;;
52854;SDS011;38719;51.418;7.286;2022-07-23T14:01:20;4.25;;;3.13;;
52854;SDS011;38719;51.418;7.286;2022-07-23T14:03:49;5.80;;;3.20;;
52854;SDS011;38719;51.418;7.286;2022-07-23T14:06:17;15.82;;;3.63;;
52854;SDS011;38719;51.418;7.286;2022-07-23T14:08:58;3.45;;;2.63;;
52854;SDS011;38719;51.418;7.286;2022-07-23T14:11:26;7.13;;;3.20;;
52854;SDS011;38719;51.418;7.286;2022-07-23T14:13:54;6.85;;;3.20;;
52854;SDS011;38719;51.418;7.286;2022-07-23T14:16:22;3.17;;;2.83;;
52854;SDS011;38719;51.418;7.286;2022-07-23T14:18:51;3.75;;;2.80;;
52854;SDS011;38719;51.418;7.286;2022-07-23T14:21:19;3.95;;;2.78;;
52854;SDS011;38719;51.418;7.286;2022-07-23T14:23:47;3.70;;;2.90;;
52854;SDS011;38719;51.418;7.286;2022-07-23T14:26:15;4.10;;;2.80;;
52854;SDS011;38719;51.418;7.286;2022-07-23T14:28:43;5.13;;;3.10;;
52854;SDS011;38719;51.418;7.286;2022-07-23T14:31:14;4.05;;;3.00;;
52854;SDS011;38719;51.418;7.286;2022-07-23T14:33:46;4.32;;;2.70;;
52854;SDS011;38719;51.418;7.286;2022-07-23T14:36:16;4.28;;;3.20;;
52854;SDS011;38719;51.418;7.286;2022-07-23T14:38:44;8.35;;;2.92;;
52854;SDS011;38719;51.418;7.286;2022-07-23T14:41:11;3.95;;;3.00;;
52854;SDS011;38719;51.418;7.286;2022-07-23T14:43:41;6.20;;;3.30;;
52854;SDS011;38719;51.418;7.286;2022-07-23T14:46:09;5.28;;;3.40;;
52854;SDS011;38719;51.418;7.286;2022-07-23T14:48:37;5.05;;;3.33;;
52854;SDS011;38719;51.418;7.286;2022-07-23T14:51:05;4.53;;;3.33;;
52854;SDS011;38719;51.418;7.286;2022-07-23T14:53:34;7.28;;;3.28;;
52854;SDS011;38719;51.418;7.286;2022-07-23T14:56:02;4.15;;;2.90;;
52854;SDS011;38719;51.418;7.286;2022-07-23T14:58:29;3.67;;;2.67;;
52854;SDS011;38719;51.418;7.286;2022-07-23T15:00:57;3.78;;;3.00;;
52854;SDS011;38719;51.418;7.286;2022-07-23T15:03:25;7.72;;;3.05;;
52854;SDS011;38719;51.418;7.286;2022-07-23T15:06:07;4.60;;;3.38;;
52854;SDS011;38719;51.418;7.286;2022-07-23T15:08:36;5.05;;;3.53;;
52854;SDS011;38719;51.418;7.286;2022-07-23T15:11:04;7.10;;;3.83;;